Time,TemperatureF,DewpointF,PressureIn,WindDirection,WindDirectionDegrees,WindSpeedMPH,WindSpeedGustMPH,Humidity,HourlyPrecipIn,Conditions,Clouds,dailyrainin,SoftwareType,DateUTC
2013-06-07 06:16:00,64.9,59.0,29.35,WNW,302,0.0,0.0,81,0.00,,---,0.00,VWS V13.01,2013-06-07 11:16:00,
2013-06-07 06:22:00,65.1,59.2,29.35,WNW,284,0.0,2.7,81,0.00,,---,0.00,VWS V13.01,2013-06-07 11:22:00,
2013-06-07 06:27:00,65.1,59.2,29.38,WNW,301,0.0,0.0,81,0.00,,---,0.00,VWS V13.01,2013-06-07 11:27:00,
2013-06-07 06:32:00,65.1,59.2,29.38,NW,313,0.0,0.0,81,0.00,,---,0.00,VWS V13.01,2013-06-07 11:32:00,
2013-06-07 06:37:00,65.1,59.2,29.38,WNW,288,0.0,0.0,81,0.00,,---,0.00,VWS V13.01,2013-06-07 11:37:00,
2013-06-07 06:42:00,65.1,59.2,29.38,WNW,285,0.0,0.0,81,0.00,,---,0.00,VWS V13.01,2013-06-07 11:42:00,
2013-06-07 06:47:00,65.3,59.3,29.38,WNW,285,0.0,0.0,81,0.00,,---,0.00,VWS V13.01,2013-06-07 11:47:00,
2013-06-07 06:52:00,65.3,59.3,29.38,WNW,294,0.0,0.0,81,0.00,,---,0.00,VWS V13.01,2013-06-07 11:52:00,
2013-06-07 06:57:00,65.3,59.3,29.38,WNW,291,0.0,0.0,81,0.00,,---,0.00,VWS V13.01,2013-06-07 11:57:00,
2013-06-07 07:02:00,65.3,59.3,29.38,WNW,294,0.0,0.0,81,0.00,,---,0.00,VWS V13.01,2013-06-07 12:02:00,
2013-06-07 07:07:00,65.5,59.5,29.38,WNW,303,0.0,0.0,81,0.00,,---,0.00,VWS V13.01,2013-06-07 12:07:00,
2013-06-07 07:12:00,65.5,59.5,29.38,West,273,0.0,0.0,81,0.00,,---,0.00,VWS V13.01,2013-06-07 12:12:00,
2013-06-07 07:17:00,65.8,60.2,29.38,NE,37,0.0,0.0,82,0.00,,---,0.00,VWS V13.01,2013-06-07 12:17:00,
2013-06-07 07:22:00,66.0,60.0,29.38,NNE,27,0.0,0.0,81,0.00,,---,0.00,VWS V13.01,2013-06-07 12:22:00,
2013-06-07 07:27:00,66.2,60.2,29.38,NNW,340,0.0,3.6,81,0.00,,---,0.00,VWS V13.01,2013-06-07 12:27:00,
2013-06-07 07:32:00,66.6,60.2,29.38,NNW,334,0.0,0.0,80,0.00,,---,0.00,VWS V13.01,2013-06-07 12:32:00,
2013-06-07 07:37:00,66.7,60.4,29.38,North,353,0.0,0.0,80,0.00,,---,0.00,VWS V13.01,2013-06-07 12:37:00,
2013-06-07 07:42:00,67.1,60.7,29.38,North,7,0.0,0.0,80,0.00,,---,0.00,VWS V13.01,2013-06-07 12:42:00,
2013-06-07 07:47:00,67.3,60.5,29.38,NNW,335,0.0,0.0,79,0.00,,---,0.00,VWS V13.01,2013-06-07 12:47:00,
2013-06-07 07:52:00,67.6,60.2,29.38,NNE,12,3.1,3.1,77,0.00,,---,0.00,VWS V13.01,2013-06-07 12:52:00,
2013-06-07 07:57:00,68.0,60.2,29.38,NW,322,0.0,3.1,76,0.00,,---,0.00,VWS V13.01,2013-06-07 12:57:00,
2013-06-07 08:02:00,68.4,60.1,29.38,NNW,343,0.0,2.7,75,0.00,,---,0.00,VWS V13.01,2013-06-07 13:02:00,
2013-06-07 08:07:00,68.5,59.2,29.38,NNE,29,0.0,0.0,72,0.00,,---,0.00,VWS V13.01,2013-06-07 13:07:00,
2013-06-07 08:12:00,69.1,58.5,29.38,North,357,0.0,5.8,69,0.00,,---,0.00,VWS V13.01,2013-06-07 13:12:00,
2013-06-07 08:17:00,69.6,57.8,29.38,North,1,3.6,7.6,66,0.00,,---,0.00,VWS V13.01,2013-06-07 13:17:00,
2013-06-07 08:22:00,70.0,57.3,29.38,WSW,253,2.7,2.7,64,0.00,,---,0.00,VWS V13.01,2013-06-07 13:22:00,
2013-06-07 08:27:00,70.2,57.0,29.38,NNE,29,0.0,4.9,63,0.00,,---,0.00,VWS V13.01,2013-06-07 13:27:00,
2013-06-07 08:32:00,70.3,57.2,29.38,North,353,4.0,4.0,63,0.00,,---,0.00,VWS V13.01,2013-06-07 13:32:00,
2013-06-07 08:37:00,70.5,57.3,29.38,NE,38,2.7,5.8,63,0.00,,---,0.00,VWS V13.01,2013-06-07 13:37:00,
2013-06-07 08:42:00,70.7,57.1,29.38,NW,323,5.4,5.4,62,0.00,,---,0.00,VWS V13.01,2013-06-07 13:42:00,
2013-06-07 08:47:00,71.1,57.8,29.38,North,353,3.6,4.9,63,0.00,,---,0.00,VWS V13.01,2013-06-07 13:47:00,
2013-06-07 08:52:00,71.4,56.4,29.38,NW,325,4.9,4.9,59,0.00,,---,0.00,VWS V13.01,2013-06-07 13:52:00,
2013-06-07 08:57:00,71.8,57.2,29.38,North,357,0.0,2.7,60,0.00,,---,0.00,VWS V13.01,2013-06-07 13:57:00,
2013-06-07 09:02:00,72.3,57.2,29.38,NNE,32,3.6,3.6,59,0.00,,---,0.00,VWS V13.01,2013-06-07 14:02:00,
2013-06-07 09:07:00,72.5,56.4,29.38,NNE,32,3.6,3.6,57,0.00,,---,0.00,VWS V13.01,2013-06-07 14:07:00,
2013-06-07 09:12:00,72.5,56.4,29.38,NW,325,3.1,3.1,57,0.00,,---,0.00,VWS V13.01,2013-06-07 14:12:00,
2013-06-07 09:17:00,73.4,56.3,29.38,NE,37,5.4,5.4,55,0.00,,---,0.00,VWS V13.01,2013-06-07 14:17:00,
2013-06-07 09:22:00,73.4,56.3,29.38,NE,43,5.4,5.8,55,0.00,,---,0.00,VWS V13.01,2013-06-07 14:22:00,
2013-06-07 09:27:00,74.3,56.6,29.38,ENE,63,3.6,4.9,54,0.00,,---,0.00,VWS V13.01,2013-06-07 14:27:00,
2013-06-07 09:32:00,74.3,56.6,29.38,NW,318,5.8,5.8,54,0.00,,---,0.00,VWS V13.01,2013-06-07 14:32:00,
2013-06-07 09:37:00,74.3,56.6,29.38,North,357,5.4,5.8,54,0.00,,---,0.00,VWS V13.01,2013-06-07 14:37:00,
2013-06-07 09:42:00,74.3,56.6,29.38,NNW,332,0.0,5.4,54,0.00,,---,0.00,VWS V13.01,2013-06-07 14:42:00,
2013-06-07 09:47:00,74.3,56.6,29.38,NNW,345,3.6,3.6,54,0.00,,---,0.00,VWS V13.01,2013-06-07 14:47:00,
2013-06-07 09:52:00,74.3,56.6,29.38,NNE,21,4.0,4.0,54,0.00,,---,0.00,VWS V13.01,2013-06-07 14:52:00,
2013-06-07 09:57:00,74.3,56.6,29.38,NE,55,0.0,0.0,54,0.00,,---,0.00,VWS V13.01,2013-06-07 14:57:00,
2013-06-07 10:02:00,74.3,56.6,29.38,North,357,5.8,5.8,54,0.00,,---,0.00,VWS V13.01,2013-06-07 15:02:00,
2013-06-07 10:07:00,74.3,56.6,29.38,NW,308,2.7,2.7,54,0.00,,---,0.00,VWS V13.01,2013-06-07 15:07:00,
2013-06-07 10:12:00,74.3,56.6,29.38,NNE,18,2.2,2.2,54,0.00,,---,0.00,VWS V13.01,2013-06-07 15:12:00,
2013-06-07 10:17:00,74.3,56.6,29.38,NNE,25,3.1,3.1,54,0.00,,---,0.00,VWS V13.01,2013-06-07 15:17:00,
2013-06-07 10:22:00,74.3,56.6,29.38,North,10,2.2,2.2,54,0.00,,---,0.00,VWS V13.01,2013-06-07 15:22:00,
2013-06-07 10:27:00,74.3,56.6,29.38,North,11,0.0,0.0,54,0.00,,---,0.00,VWS V13.01,2013-06-07 15:27:00,
2013-06-07 10:32:00,74.3,56.6,29.38,NNE,31,3.6,3.6,54,0.00,,---,0.00,VWS V13.01,2013-06-07 15:32:00,
2013-06-07 10:37:00,74.3,56.6,29.38,NW,305,0.0,0.0,54,0.00,,---,0.00,VWS V13.01,2013-06-07 15:37:00,
2013-06-07 10:42:00,74.3,56.6,29.38,NW,306,4.0,4.0,54,0.00,,---,0.00,VWS V13.01,2013-06-07 15:42:00,
2013-06-07 10:47:00,74.3,56.6,29.38,NW,313,3.1,3.1,54,0.00,,---,0.00,VWS V13.01,2013-06-07 15:47:00,
2013-06-07 10:52:00,74.3,56.6,29.38,NW,307,4.0,4.0,54,0.00,,---,0.00,VWS V13.01,2013-06-07 15:52:00,
2013-06-07 10:57:00,74.3,56.6,29.38,North,353,5.8,7.6,54,0.00,,---,0.00,VWS V13.01,2013-06-07 15:57:00,
2013-06-07 11:02:00,74.3,56.6,29.38,North,353,3.6,5.4,54,0.00,,---,0.00,VWS V13.01,2013-06-07 16:02:00,
2013-06-07 11:07:00,74.3,56.6,29.38,North,8,3.1,3.1,54,0.00,,---,0.00,VWS V13.01,2013-06-07 16:07:00,
2013-06-07 11:12:00,74.3,56.6,29.38,NE,35,5.4,5.4,54,0.00,,---,0.00,VWS V13.01,2013-06-07 16:12:00,
2013-06-07 11:17:00,74.3,56.6,29.38,North,353,5.4,5.4,54,0.00,,---,0.00,VWS V13.01,2013-06-07 16:17:00,
2013-06-07 11:22:00,74.3,56.6,29.38,NW,314,3.6,3.6,54,0.00,,---,0.00,VWS V13.01,2013-06-07 16:22:00,
2013-06-07 11:27:00,74.3,56.6,29.38,NE,40,5.4,5.4,54,0.00,,---,0.00,VWS V13.01,2013-06-07 16:27:00,
2013-06-07 11:32:00,74.3,56.6,29.38,North,4,3.6,3.6,54,0.00,,---,0.00,VWS V13.01,2013-06-07 16:32:00,
2013-06-07 11:37:00,74.3,56.6,29.38,NW,322,2.7,2.7,54,0.00,,---,0.00,VWS V13.01,2013-06-07 16:37:00,
2013-06-07 11:42:00,74.3,56.6,29.38,East,88,3.1,3.1,54,0.00,,---,0.00,VWS V13.01,2013-06-07 16:42:00,
2013-06-07 11:47:00,74.3,56.6,29.41,NNW,338,4.9,4.9,54,0.00,,---,0.00,VWS V13.01,2013-06-07 16:47:00,
2013-06-07 11:52:00,74.3,56.6,29.41,North,0,3.1,3.1,54,0.00,,---,0.00,VWS V13.01,2013-06-07 16:52:00,
2013-06-07 11:57:00,74.3,56.6,29.41,NW,315,3.6,3.6,54,0.00,,---,0.00,VWS V13.01,2013-06-07 16:57:00,
2013-06-07 12:02:00,74.3,56.6,29.41,NW,309,6.3,6.3,54,0.00,,---,0.00,VWS V13.01,2013-06-07 17:02:00,
2013-06-07 12:07:00,74.3,56.6,29.41,NNW,344,0.0,0.0,54,0.00,,---,0.00,VWS V13.01,2013-06-07 17:07:00,
2013-06-07 12:12:00,74.3,56.6,29.41,NNW,340,8.3,8.3,54,0.00,,---,0.00,VWS V13.01,2013-06-07 17:12:00,
2013-06-07 12:17:00,74.3,56.6,29.41,NNW,336,3.6,3.6,54,0.00,,---,0.00,VWS V13.01,2013-06-07 17:17:00,
2013-06-07 12:22:00,74.3,56.6,29.41,WNW,294,3.1,3.6,54,0.00,,---,0.00,VWS V13.01,2013-06-07 17:22:00,
2013-06-07 12:27:00,74.3,56.6,29.41,WNW,294,0.0,3.1,54,0.00,,---,0.00,VWS V13.01,2013-06-07 17:27:00,
2013-06-07 12:32:00,74.3,56.6,29.41,NNE,28,2.7,2.7,54,0.00,,---,0.00,VWS V13.01,2013-06-07 17:32:00,
2013-06-07 12:37:00,74.3,56.6,29.41,WNW,286,2.7,2.7,54,0.00,,---,0.00,VWS V13.01,2013-06-07 17:37:00,
2013-06-07 12:42:00,74.3,56.6,29.38,NW,318,2.2,2.2,54,0.00,,---,0.00,VWS V13.01,2013-06-07 17:42:00,
2013-06-07 12:47:00,74.3,56.6,29.38,WNW,296,5.8,5.8,54,0.00,,---,0.00,VWS V13.01,2013-06-07 17:47:00,
2013-06-07 12:52:00,74.3,56.6,29.38,NW,320,0.0,3.1,54,0.00,,---,0.00,VWS V13.01,2013-06-07 17:52:00,
2013-06-07 12:57:00,74.3,56.6,29.38,NNE,12,7.2,7.2,54,0.00,,---,0.00,VWS V13.01,2013-06-07 17:57:00,
2013-06-07 13:02:00,74.3,56.6,29.38,WNW,297,3.6,3.6,54,0.00,,---,0.00,VWS V13.01,2013-06-07 18:02:00,
2013-06-07 13:08:00,74.3,56.6,29.38,WNW,296,5.4,5.4,54,0.00,,---,0.00,VWS V13.01,2013-06-07 18:08:00,
2013-06-07 13:13:00,74.3,56.6,29.38,NE,56,5.8,5.8,54,0.00,,---,0.00,VWS V13.01,2013-06-07 18:13:00,
2013-06-07 13:18:00,74.3,56.6,29.38,NNE,18,6.3,6.3,54,0.00,,---,0.00,VWS V13.01,2013-06-07 18:18:00,
2013-06-07 13:23:00,74.3,56.6,29.38,WNW,286,3.1,3.1,54,0.00,,---,0.00,VWS V13.01,2013-06-07 18:23:00,
2013-06-07 13:28:00,74.3,56.6,29.38,WNW,286,3.1,3.1,54,0.00,,---,0.00,VWS V13.01,2013-06-07 18:28:00,
2013-06-07 13:33:00,74.3,56.6,29.38,NNW,341,2.7,4.0,54,0.00,,---,0.00,VWS V13.01,2013-06-07 18:33:00,
2013-06-07 13:39:00,74.3,56.6,29.38,NE,34,5.4,5.4,54,0.00,,---,0.00,VWS V13.01,2013-06-07 18:39:00,
2013-06-07 13:44:00,74.3,56.6,29.38,NW,312,5.8,5.8,54,0.00,,---,0.00,VWS V13.01,2013-06-07 18:44:00,
2013-06-07 13:49:00,74.3,56.6,29.38,NNW,333,2.7,2.7,54,0.00,,---,0.00,VWS V13.01,2013-06-07 18:49:00,
2013-06-07 13:54:00,74.3,56.6,29.38,NNE,15,2.2,2.2,54,0.00,,---,0.00,VWS V13.01,2013-06-07 18:54:00,
2013-06-07 13:59:00,74.3,56.6,29.38,North,357,6.3,6.3,54,0.00,,---,0.00,VWS V13.01,2013-06-07 18:59:00,
2013-06-07 14:04:00,74.3,56.6,29.35,North,9,5.8,5.8,54,0.00,,---,0.00,VWS V13.01,2013-06-07 19:04:00,
2013-06-07 14:09:00,74.3,56.6,29.35,West,260,2.7,2.7,54,0.00,,---,0.00,VWS V13.01,2013-06-07 19:09:00,
2013-06-07 14:14:00,74.3,56.6,29.35,North,9,3.6,3.6,54,0.00,,---,0.00,VWS V13.01,2013-06-07 19:14:00,
2013-06-07 14:20:00,74.3,56.6,29.35,WNW,290,5.8,5.8,54,0.00,,---,0.00,VWS V13.01,2013-06-07 19:20:00,
2013-06-07 14:25:00,74.3,56.6,29.35,WNW,290,5.8,5.8,54,0.00,,---,0.00,VWS V13.01,2013-06-07 19:25:00,
2013-06-07 14:30:00,74.3,56.6,29.35,WNW,286,2.7,3.6,54,0.00,,---,0.00,VWS V13.01,2013-06-07 19:30:00,
2013-06-07 14:35:00,74.3,56.6,29.35,WNW,286,2.7,2.7,54,0.00,,---,0.00,VWS V13.01,2013-06-07 19:35:00,
2013-06-07 14:40:00,74.3,56.6,29.35,West,275,5.8,5.8,54,0.00,,---,0.00,VWS V13.01,2013-06-07 19:40:00,
2013-06-07 14:45:00,74.3,56.6,29.35,NW,305,2.7,5.8,54,0.00,,---,0.00,VWS V13.01,2013-06-07 19:45:00,
2013-06-07 14:50:00,74.3,56.6,29.35,NW,305,2.7,2.7,54,0.00,,---,0.00,VWS V13.01,2013-06-07 19:50:00,
2013-06-07 14:55:00,74.3,56.6,29.35,NW,312,3.6,3.6,54,0.00,,---,0.00,VWS V13.01,2013-06-07 19:55:00,
2013-06-07 15:00:00,74.3,56.6,29.35,NW,312,3.6,3.6,54,0.00,,---,0.00,VWS V13.01,2013-06-07 20:00:00,
2013-06-07 15:05:00,74.3,56.6,29.35,NNE,23,3.6,3.6,54,0.00,,---,0.00,VWS V13.01,2013-06-07 20:05:00,
2013-06-07 15:10:00,74.3,56.6,29.35,NNE,23,3.6,3.6,54,0.00,,---,0.00,VWS V13.01,2013-06-07 20:10:00,
2013-06-07 15:15:00,74.3,56.6,29.35,NNE,23,3.6,3.6,54,0.00,,---,0.00,VWS V13.01,2013-06-07 20:15:00,
2013-06-07 15:20:00,74.3,56.6,29.35,NNE,23,3.6,3.6,54,0.00,,---,0.00,VWS V13.01,2013-06-07 20:20:00,
2013-06-07 15:26:00,74.3,56.6,29.35,North,7,4.0,4.0,54,0.00,,---,0.00,VWS V13.01,2013-06-07 20:26:00,
2013-06-07 15:31:00,84.2,54.4,29.35,NE,50,0.0,0.0,36,0.00,,---,0.00,VWS V13.01,2013-06-07 20:31:00,
2013-06-07 15:36:00,84.2,54.4,29.35,North,0,5.4,5.4,36,0.00,,---,0.00,VWS V13.01,2013-06-07 20:36:00,
2013-06-07 15:41:00,84.2,54.4,29.35,WNW,300,0.0,0.0,36,0.00,,---,0.00,VWS V13.01,2013-06-07 20:41:00,
2013-06-07 15:46:00,84.2,54.4,29.35,NW,305,5.8,5.8,36,0.00,,---,0.00,VWS V13.01,2013-06-07 20:46:00,
2013-06-07 16:44:00,83.7,49.8,29.35,NNE,31,2.2,2.2,31,0.00,,---,0.00,VWS V13.01,2013-06-07 21:44:00,
2013-06-07 16:49:00,83.5,48.8,29.35,NNW,332,5.8,5.8,30,0.00,,---,0.00,VWS V13.01,2013-06-07 21:49:00,
2013-06-07 16:54:00,83.3,48.7,29.35,NNW,337,2.7,4.9,30,0.00,,---,0.00,VWS V13.01,2013-06-07 21:54:00,
2013-06-07 17:00:00,83.1,48.5,29.35,NNE,17,5.8,5.8,30,0.00,,---,0.00,VWS V13.01,2013-06-07 22:00:00,
2013-06-07 17:05:00,83.1,49.4,29.35,NNW,344,0.0,2.7,31,0.00,,---,0.00,VWS V13.01,2013-06-07 22:05:00,
2013-06-07 17:10:00,83.1,49.4,29.35,NNE,30,4.0,6.3,31,0.00,,---,0.00,VWS V13.01,2013-06-07 22:10:00,
2013-06-07 17:15:00,82.9,49.2,29.35,NNE,28,0.0,4.0,31,0.00,,---,0.00,VWS V13.01,2013-06-07 22:15:00,
2013-06-07 17:20:00,82.9,49.2,29.35,North,0,6.7,6.7,31,0.00,,---,0.00,VWS V13.01,2013-06-07 22:20:00,
2013-06-07 17:25:00,82.8,49.1,29.35,North,353,0.0,0.0,31,0.00,,---,0.00,VWS V13.01,2013-06-07 22:25:00,
2013-06-07 17:30:00,82.6,48.0,29.32,NE,36,5.8,5.8,30,0.00,,---,0.00,VWS V13.01,2013-06-07 22:30:00,
2013-06-07 17:35:00,82.4,48.8,29.32,NNW,331,5.4,5.4,31,0.00,,---,0.00,VWS V13.01,2013-06-07 22:35:00,
2013-06-07 17:41:00,82.4,48.8,29.32,NE,47,3.6,3.6,31,0.00,,---,0.00,VWS V13.01,2013-06-07 22:41:00,
2013-06-07 17:46:00,82.4,48.8,29.32,NNE,13,2.2,3.6,31,0.00,,---,0.00,VWS V13.01,2013-06-07 22:46:00,
2013-06-07 17:51:00,82.2,48.6,29.32,NE,45,0.0,0.0,31,0.00,,---,0.00,VWS V13.01,2013-06-07 22:51:00,
2013-06-07 17:56:00,82.0,49.3,29.32,NNE,32,0.0,6.3,32,0.00,,---,0.00,VWS V13.01,2013-06-07 22:56:00,
2013-06-07 18:01:00,81.9,49.1,29.32,NE,46,4.0,4.0,32,0.00,,---,0.00,VWS V13.01,2013-06-07 23:01:00,
2013-06-07 18:07:00,81.7,49.0,29.32,NNE,28,5.4,5.8,32,0.00,,---,0.00,VWS V13.01,2013-06-07 23:07:00,
2013-06-07 18:12:00,81.5,48.8,29.32,NNE,14,0.0,3.6,32,0.00,,---,0.00,VWS V13.01,2013-06-07 23:12:00,
2013-06-07 18:17:00,81.5,48.8,29.32,NNW,334,0.0,0.0,32,0.00,,---,0.00,VWS V13.01,2013-06-07 23:17:00,
2013-06-07 18:22:00,81.5,49.7,29.32,NNW,345,0.0,0.0,33,0.00,,---,0.00,VWS V13.01,2013-06-07 23:22:00,
2013-06-07 18:27:00,81.3,49.5,29.32,NE,34,3.1,3.1,33,0.00,,---,0.00,VWS V13.01,2013-06-07 23:27:00,
2013-06-07 18:33:00,81.1,48.5,29.32,NNE,24,3.1,3.6,32,0.00,,---,0.00,VWS V13.01,2013-06-07 23:33:00,
2013-06-07 18:39:00,81.1,49.3,29.32,NNE,32,2.7,5.4,33,0.00,,---,0.00,VWS V13.01,2013-06-07 23:39:00,
2013-06-07 18:44:00,81.1,50.1,29.32,NE,41,3.1,3.1,34,0.00,,---,0.00,VWS V13.01,2013-06-07 23:44:00,
2013-06-07 18:49:00,81.0,50.0,29.32,NE,46,4.0,4.0,34,0.00,,---,0.00,VWS V13.01,2013-06-07 23:49:00,
2013-06-07 18:54:00,81.0,49.2,29.32,North,11,0.0,0.0,33,0.00,,---,0.00,VWS V13.01,2013-06-07 23:54:00,
2013-06-07 18:59:00,81.0,50.0,29.32,North,3,3.6,6.3,34,0.00,,---,0.00,VWS V13.01,2013-06-07 23:59:00,
2013-06-07 19:04:00,80.8,49.0,29.32,NE,54,3.1,5.4,33,0.00,,---,0.00,VWS V13.01,2013-06-08 00:04:00,
2013-06-07 19:09:00,80.8,49.0,29.32,NE,50,3.1,6.3,33,0.00,,---,0.00,VWS V13.01,2013-06-08 00:09:00,
2013-06-07 19:14:00,80.6,49.7,29.32,North,353,3.1,3.1,34,0.00,,---,0.00,VWS V13.01,2013-06-08 00:14:00,
2013-06-07 19:19:00,80.6,48.9,29.32,NE,46,4.0,5.8,33,0.00,,---,0.00,VWS V13.01,2013-06-08 00:19:00,
2013-06-07 19:24:00,80.2,49.3,29.32,NW,321,4.0,4.0,34,0.00,,---,0.00,VWS V13.01,2013-06-08 00:24:00,
2013-06-07 19:29:00,80.1,49.2,29.32,NNE,23,0.0,0.0,34,0.00,,---,0.00,VWS V13.01,2013-06-08 00:29:00,
2013-06-07 19:35:00,80.1,50.0,29.32,North,5,2.7,3.1,35,0.00,,---,0.00,VWS V13.01,2013-06-08 00:35:00,
2013-06-07 19:40:00,79.9,49.8,29.32,NNW,346,2.7,5.4,35,0.00,,---,0.00,VWS V13.01,2013-06-08 00:40:00,
2013-06-07 19:45:00,79.7,49.7,29.29,North,10,3.1,3.6,35,0.00,,---,0.00,VWS V13.01,2013-06-08 00:45:00,
2013-06-07 19:50:00,79.3,49.3,29.29,North,353,0.0,2.7,35,0.00,,---,0.00,VWS V13.01,2013-06-08 00:50:00,
2013-06-07 19:55:00,79.2,49.9,29.29,NNE,24,0.0,2.7,36,0.00,,---,0.00,VWS V13.01,2013-06-08 00:55:00,
2013-06-07 20:00:00,79.0,49.0,29.29,North,11,0.0,0.0,35,0.00,,---,0.00,VWS V13.01,2013-06-08 01:00:00,
2013-06-07 20:05:00,78.8,49.6,29.29,North,8,4.9,4.9,36,0.00,,---,0.00,VWS V13.01,2013-06-08 01:05:00,
2013-06-07 20:10:00,78.6,49.5,29.32,North,3,3.6,3.6,36,0.00,,---,0.00,VWS V13.01,2013-06-08 01:10:00,
2013-06-07 20:16:00,78.4,49.3,29.32,North,0,5.8,5.8,36,0.00,,---,0.00,VWS V13.01,2013-06-08 01:16:00,
2013-06-07 20:21:00,78.3,49.9,29.32,North,357,3.1,4.9,37,0.00,,---,0.00,VWS V13.01,2013-06-08 01:21:00,
2013-06-07 20:26:00,78.1,49.7,29.32,North,353,3.1,3.6,37,0.00,,---,0.00,VWS V13.01,2013-06-08 01:26:00,
2013-06-07 20:32:00,77.9,50.3,29.32,North,353,0.0,0.0,38,0.00,,---,0.00,VWS V13.01,2013-06-08 01:32:00,
2013-06-07 20:37:00,77.7,50.1,29.32,North,353,0.0,0.0,38,0.00,,---,0.00,VWS V13.01,2013-06-08 01:37:00,
2013-06-07 20:42:00,77.5,50.7,29.32,North,5,0.0,0.0,39,0.00,,---,0.00,VWS V13.01,2013-06-08 01:42:00,
2013-06-07 20:47:00,77.4,51.2,29.32,North,5,0.0,0.0,40,0.00,,---,0.00,VWS V13.01,2013-06-08 01:47:00,
2013-06-07 20:52:00,77.2,51.7,29.32,North,4,0.0,0.0,41,0.00,,---,0.00,VWS V13.01,2013-06-08 01:52:00,
2013-06-07 20:57:00,76.8,51.4,29.32,North,4,0.0,0.0,41,0.00,,---,0.00,VWS V13.01,2013-06-08 01:57:00,